Time;durP1;ratioP1;P1;durP2;ratioP2;P2;SDS_P1;SDS_P2;PMS_P1;PMS_P2;Temp;Humidity;BMP_temperature;BMP_pressure;BME280_temperature;BME280_humidity;BME280_pressure;Samples;Min_cycle;Max_cycle;Signal;HPM_P1;HPM_P2
2021/10/18 00:01:55;;;;;;;10.43;6.72;;;;;;;;;;4874339;29;20037;-88
2021/10/18 00:04:21;;;;;;;10.15;7.20;;;;;;;;;;4870864;29;20046;-90
2021/10/18 00:06:47;;;;;;;11.07;6.80;;;;;;;;;;4893975;29;20029;-90
2021/10/18 00:09:13;;;;;;;14.20;4.75;;;;;;;;;;4868714;29;20033;-91
2021/10/18 00:11:39;;;;;;;16.58;5.35;;;;;;;;;;4880621;29;20444;-90
2021/10/18 00:14:05;;;;;;;12.40;4.85;;;10.30;72.80;;;;;;4879369;29;20111;-89
2021/10/18 00:16:31;;;;;;;10.93;5.90;;;;;;;;;;4880328;29;20036;-91
2021/10/18 00:18:57;;;;;;;10.63;6.32;;;;;;;;;;4880042;29;20039;-90
2021/10/18 00:21:24;;;;;;;15.45;7.25;;;;;;;;;;4891118;29;20127;-90
2021/10/18 00:23:50;;;;;;;13.18;5.95;;;;;;;;;;4899121;29;20025;-92
2021/10/18 00:26:16;;;;;;;18.38;7.50;;;;;;;;;;4897303;29;20084;-91
2021/10/18 00:28:42;;;;;;;19.17;7.47;;;;;;;;;;4898216;29;20135;-90
2021/10/18 00:31:08;;;;;;;19.35;9.05;;;;;;;;;;4897802;29;20083;-91
2021/10/18 00:33:34;;;;;;;14.52;6.53;;;;;;;;;;4898450;29;20474;-90
2021/10/18 00:36:00;;;;;;;14.63;8.55;;;;;;;;;;4898858;29;20027;-90
2021/10/18 00:38:26;;;;;;;16.67;8.80;;;;;;;;;;4897529;29;20494;-92
2021/10/18 00:40:52;;;;;;;17.63;7.85;;;;;;;;;;4881856;29;20036;-91
2021/10/18 00:43:18;;;;;;;19.45;8.38;;;;;;;;;;4872345;29;20025;-90
2021/10/18 00:45:44;;;;;;;20.30;8.38;;;;;;;;;;4895571;29;20056;-90
2021/10/18 00:48:10;;;;;;;16.05;7.20;;;;;;;;;;4898627;29;20076;-88
2021/10/18 00:50:36;;;;;;;15.48;6.95;;;;;;;;;;4897491;29;20669;-89
2021/10/18 00:53:02;;;;;;;13.68;7.82;;;;;;;;;;4883461;29;20558;-90
2021/10/18 00:55:28;;;;;;;13.63;5.78;;;;;;;;;;4881734;29;20032;-91
2021/10/18 00:57:54;;;;;;;11.77;6.40;;;;;;;;;;4881599;29;20033;-90
2021/10/18 01:00:20;;;;;;;12.38;6.55;;;;;;;;;;4878984;29;20046;-90
2021/10/18 01:02:46;;;;;;;16.05;6.60;;;;;;;;;;4897322;29;20507;-90
2021/10/18 01:05:14;;;;;;;18.17;6.50;;;;;;;;;;4897768;29;20045;-90
2021/10/18 01:07:40;;;;;;;;;;;10.30;72.20;;;;;;4898884;29;20035;-92
2021/10/18 01:10:06;;;;;;;17.05;9.20;;;;;;;;;;4874900;29;19912;-89
2021/10/18 01:12:32;;;;;;;26.52;8.77;;;;;;;;;;4893231;29;20470;-91
2021/10/18 01:14:59;;;;;;;19.08;7.78;;;;;;;;;;4896672;29;20062;-89
2021/10/18 01:17:25;;;;;;;11.57;5.75;;;;;;;;;;4896148;29;20028;-90
2021/10/18 01:19:51;;;;;;;10.82;5.82;;;;;;;;;;4895397;29;20033;-91
2021/10/18 01:22:17;;;;;;;18.10;9.15;;;;;;;;;;4871742;29;20108;-91
2021/10/18 01:24:43;;;;;;;17.02;8.35;;;;;;;;;;4896223;29;20028;-90
2021/10/18 01:27:09;;;;;;;17.75;6.88;;;;;;;;;;4895852;29;20036;-89
2021/10/18 01:29:37;;;;;;;16.10;5.95;;;10.00;74.00;;;;;;4898212;29;20056;-89
2021/10/18 01:32:03;;;;;;;;;;;10.10;73.40;;;;;;4886315;29;20489;-90
2021/10/18 01:34:30;;;;;;;22.33;6.95;;;;;;;;;;4898109;29;20258;-91
2021/10/18 01:36:58;;;;;;;17.08;6.22;;;10.30;73.30;;;;;;4889755;29;20036;-88
2021/10/18 01:39:25;;;;;;;11.80;7.30;;;;;;;;;;4892424;29;20033;-89
2021/10/18 01:41:51;;;;;;;18.42;6.32;;;;;;;;;;4897857;29;20114;-91
2021/10/18 01:44:17;;;;;;;11.48;6.85;;;;;;;;;;4869264;29;20071;-89
2021/10/18 01:46:43;;;;;;;12.88;6.50;;;;;;;;;;4880626;29;20036;-90
2021/10/18 01:49:10;;;;;;;14.27;7.47;;;;;;;;;;4888974;29;20029;-92
2021/10/18 01:51:36;;;;;;;17.67;7.57;;;;;;;;;;4893630;29;20498;-90
2021/10/18 01:54:02;;;;;;;15.65;7.72;;;;;;;;;;4898198;29;20060;-90
2021/10/18 01:56:31;;;;;;;17.50;8.52;;;;;;;;;;4897491;29;20075;-91
2021/10/18 01:58:57;;;;;;;13.38;7.03;;;;;;;;;;4897441;29;20028;-91
2021/10/18 02:01:23;;;;;;;12.45;5.78;;;;;;;;;;4891455;29;20025;-90
2021/10/18 02:03:49;;;;;;;10.05;5.05;;;;;;;;;;4877666;29;20033;-90
2021/10/18 02:06:15;;;;;;;12.27;5.70;;;;;;;;;;4889914;29;20048;-90
2021/10/18 02:08:41;;;;;;;10.98;5.80;;;;;;;;;;4893159;29;20059;-90
2021/10/18 02:11:07;;;;;;;13.15;7.03;;;;;;;;;;4895312;29;20414;-90
2021/10/18 02:13:33;;;;;;;9.70;6.50;;;;;;;;;;4896288;29;20029;-91
2021/10/18 02:15:59;;;;;;;8.93;5.22;;;;;;;;;;4880614;29;20032;-90
2021/10/18 02:18:26;;;;;;;7.90;4.43;;;;;;;;;;4897154;29;20039;-92
2021/10/18 02:20:52;;;;;;;8.52;4.55;;;;;;;;;;4871416;29;20263;-89
2021/10/18 02:23:17;;;;;;;8.95;4.70;;;;;;;;;;4896333;29;20028;-91
2021/10/18 02:25:43;;;;;;;8.95;4.93;;;;;;;;;;4895877;29;20132;-89
2021/10/18 02:28:09;;;;;;;6.40;4.82;;;;;;;;;;4872094;29;20372;-89
2021/10/18 02:30:35;;;;;;;12.88;6.13;;;;;;;;;;4865675;29;20029;-91
2021/10/18 02:33:01;;;;;;;10.75;5.22;;;;;;;;;;4896099;29;20033;-90
2021/10/18 02:35:27;;;;;;;15.30;7.43;;;;;;;;;;4863598;29;20032;-90
2021/10/18 02:37:53;;;;;;;11.23;5.35;;;;;;;;;;4892943;29;20088;-89
2021/10/18 02:40:19;;;;;;;17.52;7.20;;;;;;;;;;4883144;29;20088;-92
2021/10/18 02:42:45;;;;;;;11.95;5.13;;;;;;;;;;4900033;29;20025;-90
2021/10/18 02:45:11;;;;;;;15.38;6.93;;;;;;;;;;4906708;29;20067;-91
2021/10/18 02:47:37;;;;;;;11.38;4.57;;;;;;;;;;4900570;29;20405;-92
2021/10/18 02:50:04;;;;;;;13.95;7.00;;;;;;;;;;4884227;29;20545;-90
2021/10/18 02:52:30;;;;;;;11.20;5.65;;;;;;;;;;4896752;29;20025;-92
2021/10/18 02:54:56;;;;;;;6.63;4.47;;;;;;;;;;4900508;29;20165;-91
2021/10/18 02:57:22;;;;;;;10.20;5.13;;;;;;;;;;4900322;29;20040;-91
2021/10/18 02:59:48;;;;;;;8.63;5.53;;;;;;;;;;4898670;29;20414;-91
2021/10/18 03:02:15;;;;;;;10.75;5.10;;;;;;;;;;4894546;29;20041;-89
2021/10/18 03:04:41;;;;;;;14.00;5.10;;;;;;;;;;4893904;29;20032;-92
2021/10/18 03:07:07;;;;;;;10.70;4.95;;;;;;;;;;4900386;29;20131;-90
2021/10/18 03:09:33;;;;;;;9.05;4.65;;;;;;;;;;4888264;29;20025;-91
2021/10/18 03:11:59;;;;;;;13.65;5.75;;;;;;;;;;4900363;29;20570;-90
2021/10/18 03:14:25;;;;;;;10.02;5.75;;;;;;;;;;4899069;29;20032;-90
2021/10/18 03:16:51;;;;;;;8.40;4.47;;;;;;;;;;4899853;29;20188;-91
2021/10/18 03:19:17;;;;;;;11.05;5.13;;;;;;;;;;4899947;29;20029;-91
2021/10/18 03:21:43;;;;;;;11.52;5.22;;;;;;;;;;4899660;29;20048;-90
2021/10/18 03:24:09;;;;;;;7.70;3.95;;;;;;;;;;4899402;29;20039;-90
2021/10/18 03:26:36;;;;;;;12.98;4.80;;;;;;;;;;4899912;29;20029;-91
2021/10/18 03:29:02;;;;;;;6.20;3.63;;;;;;;;;;4869500;29;20129;-91
2021/10/18 03:31:28;;;;;;;5.82;4.60;;;;;;;;;;4898685;29;20120;-91
2021/10/18 03:33:53;;;;;;;10.02;4.22;;;;;;;;;;4900183;29;20446;-90
2021/10/18 03:36:19;;;;;;;7.40;4.13;;;;;;;;;;4899886;29;20039;-90
2021/10/18 03:38:45;;;;;;;8.75;5.28;;;;;;;;;;4880272;29;20009;-92
2021/10/18 03:41:11;;;;;;;6.85;4.55;;;;;;;;;;4897671;29;20501;-90
2021/10/18 03:43:38;;;;;;;10.75;4.80;;;;;;;;;;4881593;29;20035;-91
2021/10/18 03:46:05;;;;;;;11.18;4.85;;;;;;;;;;4899913;29;20520;-92
2021/10/18 03:48:31;;;;;;;12.00;5.47;;;;;;;;;;4898496;29;20631;-91
2021/10/18 03:50:57;;;;;;;9.93;5.97;;;;;;;;;;4898463;29;20041;-90
2021/10/18 03:53:23;;;;;;;8.60;4.43;;;;;;;;;;4883403;29;20038;-90
2021/10/18 03:55:49;;;;;;;15.55;6.22;;;;;;;;;;4882382;29;20036;-91
2021/10/18 03:58:16;;;;;;;14.48;5.50;;;9.80;75.60;;;;;;4882599;29;20029;-92
2021/10/18 04:00:42;;;;;;;9.60;5.00;;;;;;;;;;4900038;29;20040;-90
2021/10/18 04:03:08;;;;;;;9.98;5.22;;;;;;;;;;4882450;29;20031;-90
2021/10/18 04:05:34;;;;;;;7.45;4.55;;;;;;;;;;4882845;29;20167;-92
2021/10/18 04:08:00;;;;;;;14.73;5.72;;;;;;;;;;4887013;29;20028;-90
2021/10/18 04:10:26;;;;;;;8.73;5.00;;;;;;;;;;4899855;29;20395;-90
2021/10/18 04:12:52;;;;;;;9.30;4.78;;;;;;;;;;4876932;29;20049;-92
2021/10/18 04:15:19;;;;;;;9.35;6.30;;;;;;;;;;4892382;29;20529;-90
2021/10/18 04:17:46;;;;;;;8.25;3.85;;;;;;;;;;4899367;29;20485;-92
2021/10/18 04:20:12;;;;;;;9.95;4.70;;;;;;;;;;4881302;29;20041;-93
2021/10/18 04:22:38;;;;;;;8.63;5.05;;;;;;;;;;4881533;29;20120;-90
2021/10/18 04:25:05;;;;;;;6.45;4.88;;;;;;;;;;4893240;29;20040;-89
2021/10/18 04:27:31;;;;;;;8.13;4.05;;;;;;;;;;4898609;29;20089;-90
2021/10/18 04:29:57;;;;;;;4.93;3.25;;;;;;;;;;4882187;29;20104;-90
2021/10/18 04:32:23;;;;;;;9.60;4.35;;;;;;;;;;4882280;29;20037;-91
2021/10/18 04:34:48;;;;;;;8.80;4.47;;;;;;;;;;4882119;29;20029;-90
2021/10/18 04:37:14;;;;;;;7.15;4.07;;;;;;;;;;4891860;29;20035;-90
2021/10/18 04:39:40;;;;;;;6.80;5.38;;;;;;;;;;4885765;29;20529;-91
2021/10/18 04:42:06;;;;;;;6.43;3.95;;;;;;;;;;4897143;29;20036;-90
2021/10/18 04:44:33;;;;;;;8.60;4.90;;;;;;;;;;4881806;29;20056;-91
2021/10/18 04:46:59;;;;;;;8.50;4.68;;;;;;;;;;4879582;29;20037;-92
2021/10/18 04:49:25;;;;;;;9.07;4.65;;;;;;;;;;4889192;29;20024;-91
2021/10/18 04:51:51;;;;;;;6.90;4.60;;;;;;;;;;4878281;29;20059;-91
2021/10/18 04:54:17;;;;;;;13.52;6.13;;;;;;;;;;4869963;29;20127;-91
2021/10/18 04:56:43;;;;;;;14.88;6.20;;;;;;;;;;4888158;29;20512;-90
2021/10/18 04:59:09;;;;;;;9.55;4.55;;;;;;;;;;4895572;29;20041;-91
2021/10/18 05:01:35;;;;;;;6.75;3.78;;;;;;;;;;4871123;29;20021;-90
2021/10/18 05:04:00;;;;;;;7.38;3.85;;;;;;;;;;4887120;29;20059;-93
2021/10/18 05:06:26;;;;;;;9.77;4.38;;;;;;;;;;4895748;29;20550;-90
2021/10/18 05:08:54;;;;;;;8.52;3.70;;;;;;;;;;4896810;29;20024;-91
2021/10/18 05:11:20;;;;;;;4.15;2.80;;;;;;;;;;4897391;29;20037;-90
2021/10/18 05:13:46;;;;;;;7.10;3.38;;;;;;;;;;4896225;29;20047;-92
2021/10/18 05:16:12;;;;;;;5.28;3.35;;;;;;;;;;4896751;29;20172;-90
2021/10/18 05:18:38;;;;;;;3.45;3.10;;;;;;;;;;4896991;29;20036;-90
2021/10/18 05:21:06;;;;;;;7.68;3.95;;;;;;;;;;4894272;29;20070;-92
2021/10/18 05:23:32;;;;;;;5.82;3.97;;;;;;;;;;4894070;29;20533;-92
2021/10/18 05:25:58;;;;;;;5.85;3.65;;;;;;;;;;4894866;29;20032;-91
2021/10/18 05:28:24;;;;;;;7.28;4.38;;;;;;;;;;4895093;29;20036;-91
2021/10/18 05:30:50;;;;;;;10.23;4.88;;;;;;;;;;4864623;29;20144;-92
2021/10/18 05:33:16;;;;;;;5.22;3.53;;;;;;;;;;4890671;29;20024;-90
2021/10/18 05:35:42;;;;;;;7.97;3.22;;;;;;;;;;4889229;29;20040;-92
2021/10/18 05:38:08;;;;;;;6.35;3.55;;;;;;;;;;4877607;29;20080;-92
2021/10/18 05:40:35;;;;;;;7.40;4.50;;;;;;;;;;4888104;29;20401;-90
2021/10/18 05:43:01;;;;;;;6.35;3.60;;;;;;;;;;4896866;29;20045;-91
2021/10/18 05:45:27;;;;;;;5.20;3.55;;;;;;;;;;4897381;29;20115;-90
2021/10/18 05:47:57;;;;;;;8.68;4.57;;;;;;;;;;4870434;29;20053;-91
2021/10/18 05:50:25;;;;;;;12.38;4.10;;;;;;;;;;4886010;29;20025;-91
2021/10/18 05:52:51;;;;;;;10.70;4.03;;;;;;;;;;4893824;29;20119;-85
2021/10/18 05:55:17;;;;;;;6.45;3.65;;;;;;;;;;4893065;29;20271;-86
2021/10/18 05:57:51;;;;;;;7.50;4.20;;;;;;;;;;4892347;29;20025;-86
2021/10/18 06:00:17;;;;;;;6.60;4.00;;;;;;;;;;4891386;29;20032;-87
2021/10/18 06:02:43;;;;;;;13.10;4.47;;;;;;;;;;4879696;29;20044;-86
2021/10/18 06:05:10;;;;;;;7.70;3.50;;;;;;;;;;4888486;29;20047;-87
2021/10/18 06:07:36;;;;;;;4.43;3.53;;;;;;;;;;4892866;29;20032;-85
2021/10/18 06:10:02;;;;;;;5.13;3.17;;;;;;;;;;4892350;29;20051;-86
2021/10/18 06:12:28;;;;;;;11.05;5.25;;;;;;;;;;4892568;29;20047;-86
2021/10/18 06:14:54;;;;;;;7.63;4.13;;;;;;;;;;4871385;29;20191;-85
2021/10/18 06:17:20;;;;;;;13.02;5.80;;;;;;;;;;4895433;29;20029;-86
2021/10/18 06:19:46;;;;;;;6.38;3.95;;;;;;;;;;4896163;29;20044;-85
2021/10/18 06:22:12;;;;;;;9.25;4.20;;;;;;;;;;4862363;29;20064;-86
2021/10/18 06:24:38;;;;;;;12.18;5.20;;;;;;;;;;4893129;29;20060;-86
2021/10/18 06:27:04;;;;;;;8.23;4.30;;;;;;;;;;4895650;29;20040;-86
2021/10/18 06:29:31;;;;;;;9.25;4.97;;;;;;;;;;4896655;29;20056;-87
2021/10/18 06:31:57;;;;;;;14.33;5.53;;;;;;;;;;4894124;29;20036;-86
2021/10/18 06:34:23;;;;;;;14.30;4.57;;;;;;;;;;4886181;29;20276;-88
2021/10/18 06:36:49;;;;;;;9.20;4.03;;;;;;;;;;4889243;29;20032;-84
2021/10/18 06:39:15;;;;;;;7.18;4.55;;;;;;;;;;4898407;29;20116;-87
2021/10/18 06:41:41;;;;;;;12.73;3.92;;;;;;;;;;4899711;29;20143;-87
2021/10/18 06:44:07;;;;;;;9.20;5.00;;;;;;;;;;4895293;29;20032;-88
2021/10/18 06:46:33;;;;;;;11.13;6.28;;;;;;;;;;4894583;29;20051;-87
2021/10/18 06:48:59;;;;;;;15.32;4.93;;;;;;;;;;4877172;29;20116;-87
2021/10/18 06:51:32;;;;;;;10.77;4.93;;;;;;;;;;4874357;29;20119;-89
2021/10/18 06:53:58;;;;;;;8.80;6.07;;;;;;;;;;4895366;29;20048;-86
2021/10/18 06:56:24;;;;;;;11.23;5.18;;;;;;;;;;4893252;29;20104;-87
2021/10/18 06:58:50;;;;;;;10.25;6.68;;;;;;;;;;4894200;29;20063;-87
2021/10/18 07:01:16;;;;;;;9.07;5.35;;;;;;;;;;4883752;29;20550;-88
2021/10/18 07:03:42;;;;;;;10.27;6.05;;;;;;;;;;4879297;29;20029;-89
2021/10/18 07:06:08;;;;;;;7.78;4.70;;;;;;;;;;4891571;29;20047;-87
2021/10/18 07:08:34;;;;;;;9.38;4.45;;;;;;;;;;4874074;29;20024;-88
2021/10/18 07:11:00;;;;;;;6.30;4.35;;;;;;;;;;4892825;29;20578;-89
2021/10/18 07:13:27;;;;;;;5.57;4.15;;;13.40;54.20;;;;;;4896837;29;20028;-89
2021/10/18 07:15:53;;;;;;;4.57;3.63;;;;;;;;;;4888091;29;20067;-89
2021/10/18 07:18:19;;;;;;;6.53;3.53;;;;;;;;;;4884251;29;20498;-89
2021/10/18 07:20:45;;;;;;;10.10;3.80;;;;;;;;;;4893579;29;20041;-88
2021/10/18 07:23:11;;;;;;;10.18;4.15;;;;;;;;;;4893376;29;20032;-88
2021/10/18 07:25:40;;;;;;;7.63;5.35;;;16.60;47.10;;;;;;4888687;29;20079;-89
2021/10/18 07:28:08;;;;;;;5.45;4.72;;;16.80;46.80;;;;;;4905875;29;20049;-89
2021/10/18 07:30:34;;;;;;;3.45;3.15;;;16.50;47.80;;;;;;4901308;29;20060;-86
2021/10/18 07:33:01;;;;;;;4.63;3.30;;;;;;;;;;4893227;29;20072;-87
2021/10/18 07:35:31;;;;;;;4.18;3.60;;;;;;;;;;4888932;29;20143;-87
2021/10/18 07:37:59;;;;;;;6.70;3.92;;;;;;;;;;4888078;29;20526;-87
2021/10/18 07:40:25;;;;;;;6.28;3.17;;;;;;;;;;4888461;29;20035;-86
2021/10/18 07:42:51;;;;;;;5.28;3.17;;;;;;;;;;4889515;29;20243;-87
2021/10/18 07:45:17;;;;;;;6.10;3.45;;;;;;;;;;4898473;29;20131;-87
2021/10/18 07:47:43;;;;;;;6.82;4.35;;;;;;;;;;4890986;29;20056;-87
2021/10/18 07:50:10;;;;;;;5.25;2.97;;;;;;;;;;4888717;29;20071;-88
2021/10/18 07:52:39;;;;;;;;;;;21.40;39.80;;;;;;4889870;29;20561;-87
2021/10/18 07:55:12;;;;;;;8.07;3.53;;;21.70;39.70;;;;;;4891804;29;20005;-88
2021/10/18 07:57:39;;;;;;;5.07;3.25;;;22.40;39.10;;;;;;4889598;29;20123;-89
2021/10/18 08:00:05;;;;;;;8.10;4.50;;;;;;;;;;4903134;29;20021;-91
2021/10/18 08:02:31;;;;;;;6.90;3.30;;;;;;;;;;4876528;29;20044;-86
2021/10/18 08:04:57;;;;;;;6.63;3.35;;;;;;;;;;4872747;29;20100;-87
2021/10/18 08:07:27;;;;;;;5.45;3.50;;;;;;;;;;4870530;29;20139;-87
2021/10/18 08:09:54;;;;;;;11.93;4.22;;;;;;;;;;4875298;29;20033;-88
2021/10/18 08:12:20;;;;;;;6.40;3.05;;;;;;;;;;4867720;29;20045;-88
2021/10/18 08:14:46;;;;;;;6.50;4.35;;;;;;;;;;4891540;29;20024;-88
2021/10/18 08:17:12;;;;;;;6.97;4.18;;;23.10;38.60;;;;;;4890261;29;20039;-87
2021/10/18 08:19:38;;;;;;;8.25;4.65;;;;;;;;;;4892806;29;20120;-89
2021/10/18 08:22:04;;;;;;;7.15;4.07;;;;;;;;;;4896182;29;20091;-90
2021/10/18 08:24:30;;;;;;;6.05;4.15;;;;;;;;;;4873513;29;20048;-88
2021/10/18 08:26:56;;;;;;;10.55;4.05;;;;;;;;;;4893364;29;20052;-88
2021/10/18 08:29:22;;;;;;;7.43;4.07;;;;;;;;;;4892556;29;20036;-88
2021/10/18 08:31:48;;;;;;;4.93;3.47;;;;;;;;;;4891266;29;20100;-88
2021/10/18 08:34:14;;;;;;;5.85;3.75;;;;;;;;;;4886489;29;20572;-89
2021/10/18 08:36:40;;;;;;;6.22;3.90;;;;;;;;;;4873800;29;20124;-88
2021/10/18 08:41:45;;;;;;;5.80;3.25;;;;;;;;;;4890433;29;20024;-89
2021/10/18 08:44:17;;;;;;;6.18;3.22;;;;;;;;;;4873109;29;20029;-89
2021/10/18 08:46:48;;;;;;;4.55;2.72;;;25.20;38.30;;;;;;4892496;29;20090;-89
2021/10/18 08:49:14;;;;;;;6.97;3.03;;;;;;;;;;4891109;29;20032;-89
2021/10/18 08:51:40;;;;;;;6.72;3.13;;;;;;;;;;4890584;29;20047;-89
2021/10/18 08:54:07;;;;;;;4.25;3.45;;;;;;;;;;4893375;29;20033;-88
2021/10/18 08:56:33;;;;;;;;;;;25.30;38.40;;;;;;4883535;29;20094;-90
2021/10/18 08:58:59;;;;;;;3.83;2.50;;;;;;;;;;4897741;29;19916;-89
2021/10/18 09:01:45;;;;;;;6.55;2.60;;;24.80;37.40;;;;;;4904454;29;20510;-90
2021/10/18 09:04:26;;;;;;;4.88;2.40;;;24.80;38.00;;;;;;4897102;29;20116;-89
2021/10/18 09:07:04;;;;;;;4.60;2.50;;;24.80;37.10;;;;;;4874173;29;20451;-89
2021/10/18 09:09:45;;;;;;;5.38;2.70;;;24.70;36.70;;;;;;4892316;29;20032;-88
2021/10/18 09:12:31;;;;;;;5.55;2.90;;;24.70;37.40;;;;;;4891103;29;20176;-88
2021/10/18 09:15:20;;;;;;;4.93;2.13;;;24.40;38.50;;;;;;4889697;29;20442;-88
2021/10/18 09:17:46;;;;;;;5.00;2.63;;;;;;;;;;4897657;29;20035;-89
2021/10/18 09:20:25;;;;;;;4.63;2.10;;;24.50;36.30;;;;;;4870420;29;20521;-89
2021/10/18 09:22:52;;;;;;;7.05;2.00;;;24.50;38.60;;;;;;4893075;29;20044;-89
2021/10/18 09:25:38;;;;;;;3.33;2.15;;;24.50;37.70;;;;;;4890075;29;20127;-87
2021/10/18 09:28:13;;;;;;;3.08;2.13;;;24.50;39.60;;;;;;4898484;29;20088;-87
2021/10/18 09:30:41;;;;;;;3.63;2.10;;;;;;;;;;4884793;29;20040;-87
2021/10/18 09:33:23;;;;;;;6.05;2.67;;;25.20;39.20;;;;;;4889965;29;20565;-87
2021/10/18 09:35:51;;;;;;;3.92;1.85;;;25.10;37.00;;;;;;4890610;29;20025;-86
2021/10/18 09:38:19;;;;;;;5.38;1.58;;;25.10;38.10;;;;;;4897241;29;20043;-88
2021/10/18 09:40:45;;;;;;;3.85;1.67;;;;;;;;;;4892870;29;20047;-86
2021/10/18 09:45:39;;;;;;;2.03;1.83;;;;;;;;;;4891801;29;20037;-89
2021/10/18 10:53:12;;;;;;;5.90;1.50;;;;;;;;;;4878720;29;20042;-92
2021/10/18 10:55:39;;;;;;;2.20;1.10;;;;;;;;;;4878131;29;21029;-92
2021/10/18 10:58:31;;;;;;;5.10;1.67;;;21.90;44.80;;;;;;4860151;29;20053;-90
2021/10/18 11:00:57;;;;;;;4.82;2.53;;;;;;;;;;4875371;29;20041;-88
2021/10/18 11:03:30;;;;;;;2.97;1.65;;;;;;;;;;4868932;29;20037;-89
2021/10/18 11:06:02;;;;;;;3.28;1.73;;;21.90;41.90;;;;;;4895926;29;20055;-88
2021/10/18 11:08:31;;;;;;;2.00;1.25;;;22.00;42.40;;;;;;4890363;29;20089;-90
2021/10/18 11:10:57;;;;;;;3.03;1.70;;;;;;;;;;4897271;29;20040;-90
2021/10/18 11:13:23;;;;;;;3.05;1.50;;;;;;;;;;4897097;29;20040;-89
2021/10/18 11:15:49;;;;;;;13.25;2.15;;;;;;;;;;4891277;29;20129;-91
2021/10/18 11:18:23;;;;;;;3.05;1.35;;;;;;;;;;4891772;29;20060;-90
2021/10/18 11:20:49;;;;;;;2.22;1.70;;;;;;;;;;4897051;29;20063;-88
2021/10/18 11:23:16;;;;;;;1.60;1.50;;;;;;;;;;4886627;29;20033;-89
2021/10/18 11:25:44;;;;;;;2.08;1.13;;;22.10;41.80;;;;;;4898562;29;20045;-89
2021/10/18 11:28:11;;;;;;;3.28;1.90;;;;;;;;;;4905688;29;20047;-90
2021/10/18 11:30:38;;;;;;;4.03;1.65;;;22.20;43.60;;;;;;4899978;29;20119;-90
2021/10/18 11:33:04;;;;;;;11.00;2.38;;;;;;;;;;4892207;29;20037;-89
2021/10/18 11:35:33;;;;;;;4.07;1.02;;;22.40;40.00;;;;;;4899942;29;20025;-89
2021/10/18 11:38:05;;;;;;;2.88;1.23;;;22.50;41.80;;;;;;4898054;29;20763;-88
2021/10/18 11:40:31;;;;;;;2.83;1.10;;;;;;;;;;4893845;29;20037;-88
2021/10/18 11:43:02;;;;;;;2.38;0.98;;;22.50;42.00;;;;;;4886653;29;20038;-86
2021/10/18 11:45:32;;;;;;;3.00;1.67;;;22.30;41.40;;;;;;4885239;29;20037;-86
2021/10/18 11:48:05;;;;;;;1.90;0.90;;;;;;;;;;4897597;29;20516;-86
2021/10/18 11:50:36;;;;;;;2.00;1.65;;;;;;;;;;4871590;29;20839;-86
2021/10/18 11:53:08;;;;;;;2.60;0.93;;;;;;;;;;4888307;29;20029;-86
2021/10/18 11:55:50;;;;;;;2.90;1.80;;;22.30;44.90;;;;;;4891725;29;20600;-86
2021/10/18 11:58:19;;;;;;;6.45;2.10;;;22.00;43.30;;;;;;4887880;29;20032;-85
2021/10/18 12:00:45;;;;;;;2.33;1.52;;;;;;;;;;4887350;29;20047;-86
2021/10/18 12:03:18;;;;;;;4.00;1.77;;;;;;;;;;4897089;29;20020;-91
2021/10/18 12:05:52;;;;;;;2.85;1.50;;;22.30;44.10;;;;;;4874549;29;20066;-88
2021/10/18 12:08:22;;;;;;;7.32;2.10;;;22.30;45.50;;;;;;4888520;29;20392;-86
2021/10/18 12:10:50;;;;;;;3.75;1.88;;;22.40;47.80;;;;;;4883324;29;20044;-85
2021/10/18 12:13:22;;;;;;;3.78;1.67;;;22.40;45.60;;;;;;4887596;29;20172;-86
2021/10/18 12:16:03;;;;;;;3.67;1.65;;;22.50;44.20;;;;;;4883786;29;20387;-87
2021/10/18 12:18:29;;;;;;;5.47;1.98;;;;;;;;;;4872443;29;20028;-85
2021/10/18 12:21:03;;;;;;;3.97;2.05;;;22.40;45.00;;;;;;4894259;29;20067;-87
2021/10/18 12:23:50;;;;;;;6.97;1.00;;;22.30;45.20;;;;;;4890564;29;20312;-89
2021/10/18 12:26:22;;;;;;;2.80;1.27;;;22.20;46.00;;;;;;4878656;29;20052;-86
2021/10/18 12:28:50;;;;;;;3.13;1.40;;;;;;;;;;4890994;29;20514;-89
2021/10/18 12:31:24;;;;;;;;;;;21.80;47.20;;;;;;4874123;29;20409;-87
2021/10/18 12:34:10;;;;;;;2.08;1.23;;;21.70;47.20;;;;;;4888818;29;19935;-86
2021/10/18 12:36:53;;;;;;;3.72;1.73;;;21.50;66.80;;;;;;4875224;29;20040;-86
2021/10/18 12:39:39;;;;;;;1.55;1.13;;;21.00;51.70;;;;;;4872404;29;20071;-87
2021/10/18 12:42:06;;;;;;;3.60;1.40;;;21.20;46.60;;;;;;4878778;29;20500;-86
2021/10/18 12:44:36;;;;;;;;;;;21.00;47.50;;;;;;4885215;29;20032;-86
2021/10/18 12:47:10;;;;;;;6.85;1.55;;;21.00;49.30;;;;;;4895618;29;20077;-86
2021/10/18 12:49:36;;;;;;;3.00;1.38;;;;;;;;;;4889317;29;20037;-87
2021/10/18 12:52:02;;;;;;;3.88;1.50;;;;;;;;;;4869164;29;20040;-87
2021/10/18 12:54:39;;;;;;;2.72;1.15;;;21.00;49.40;;;;;;4883783;29;20076;-87
2021/10/18 12:57:12;;;;;;;3.08;2.00;;;20.90;49.00;;;;;;4902269;29;20034;-86
2021/10/18 13:00:08;;;;;;;7.00;1.52;;;20.90;49.70;;;;;;4884532;29;20032;-86
2021/10/18 13:02:39;;;;;;;4.47;1.45;;;20.70;50.50;;;;;;4891856;29;20045;-86
2021/10/18 13:05:15;;;;;;;2.50;1.67;;;20.60;50.40;;;;;;4886365;29;20702;-86
2021/10/18 13:07:52;;;;;;;3.17;1.40;;;;;;;;;;4893567;29;20032;-87
2021/10/18 13:10:19;;;;;;;2.85;1.13;;;20.50;51.00;;;;;;4887660;29;20037;-86
2021/10/18 13:12:46;;;;;;;1.40;0.90;;;20.40;50.70;;;;;;4891385;29;20071;-87
2021/10/18 13:15:15;;;;;;;4.15;1.05;;;20.40;51.50;;;;;;4869515;29;20037;-86
2021/10/18 13:17:41;;;;;;;3.97;1.45;;;;;;;;;;4894438;29;20047;-87
2021/10/18 13:20:07;;;;;;;2.70;1.70;;;;;;;;;;4888894;29;20486;-88
2021/10/18 13:22:34;;;;;;;1.03;0.93;;;;;;;;;;4892243;29;20131;-86
2021/10/18 13:25:00;;;;;;;2.88;1.70;;;;;;;;;;4888827;29;20040;-86
2021/10/18 13:27:26;;;;;;;4.55;2.00;;;;;;;;;;4888811;29;20130;-87
2021/10/18 13:29:52;;;;;;;2.92;1.38;;;;;;;;;;4890282;29;20332;-87
2021/10/18 13:32:18;;;;;;;1.13;0.77;;;;;;;;;;4892464;29;20089;-88
2021/10/18 13:34:44;;;;;;;4.55;1.48;;;;;;;;;;4898349;29;20818;-89
2021/10/18 13:37:11;;;;;;;1.70;1.15;;;20.40;50.40;;;;;;4873379;29;20116;-88
2021/10/18 13:39:42;;;;;;;2.05;1.02;;;20.40;49.70;;;;;;4888369;29;20029;-87
2021/10/18 13:42:08;;;;;;;2.28;1.23;;;;;;;;;;4896627;29;20040;-87
2021/10/18 13:44:34;;;;;;;2.85;1.58;;;;;;;;;;4870190;29;20055;-86
2021/10/18 13:47:01;;;;;;;5.20;1.40;;;;;;;;;;4888899;29;20749;-86
2021/10/18 13:49:27;;;;;;;7.60;1.83;;;;;;;;;;4883972;29;20103;-87
2021/10/18 13:51:53;;;;;;;2.50;1.30;;;;;;;;;;4888270;29;20048;-86
2021/10/18 13:54:19;;;;;;;1.77;1.17;;;;;;;;;;4877472;29;20040;-87
2021/10/18 13:56:45;;;;;;;3.60;1.00;;;;;;;;;;4891076;29;21478;-85
2021/10/18 13:59:11;;;;;;;1.90;1.33;;;;;;;;;;4886350;29;20043;-86
2021/10/18 14:01:37;;;;;;;2.67;1.48;;;;;;;;;;4883534;29;20028;-87
2021/10/18 14:04:04;;;;;;;3.50;1.30;;;;;;;;;;4887373;29;20458;-87
2021/10/18 14:06:30;;;;;;;3.15;1.50;;;;;;;;;;4887247;29;20127;-86
2021/10/18 14:08:56;;;;;;;2.28;1.35;;;;;;;;;;4888914;29;20124;-87
2021/10/18 14:11:22;;;;;;;3.83;1.13;;;;;;;;;;4886003;29;20036;-86
2021/10/18 14:13:48;;;;;;;3.92;1.92;;;;;;;;;;4889872;29;20032;-90
2021/10/18 14:16:14;;;;;;;6.25;3.05;;;;;;;;;;4874845;29;20033;-89
2021/10/18 14:18:40;;;;;;;6.45;3.05;;;;;;;;;;4885907;29;20037;-87
2021/10/18 14:21:06;;;;;;;5.25;2.33;;;;;;;;;;4871273;29;20057;-86
2021/10/18 14:23:35;;;;;;;3.67;2.13;;;;;;;;;;4865700;29;20068;-87
2021/10/18 14:26:01;;;;;;;3.30;1.58;;;;;;;;;;4878552;29;20452;-87
2021/10/18 14:28:27;;;;;;;2.42;1.60;;;19.30;52.60;;;;;;4870060;29;20834;-87
2021/10/18 14:30:54;;;;;;;2.58;1.60;;;19.20;52.70;;;;;;4868333;29;20041;-89
2021/10/18 14:33:21;;;;;;;3.28;1.48;;;;;;;;;;4880865;29;20049;-87
2021/10/18 14:35:47;;;;;;;3.30;2.30;;;;;;;;;;4879790;29;20714;-86
2021/10/18 14:38:13;;;;;;;2.75;1.55;;;;;;;;;;4876403;29;20085;-88
2021/10/18 14:40:39;;;;;;;2.83;1.60;;;;;;;;;;4878088;29;20084;-88
2021/10/18 14:43:06;;;;;;;3.30;1.42;;;;;;;;;;4870641;29;20463;-87
2021/10/18 14:45:32;;;;;;;3.80;1.35;;;;;;;;;;4876738;29;20048;-86
2021/10/18 14:48:00;;;;;;;6.25;2.03;;;;;;;;;;4875448;29;20502;-86
2021/10/18 14:50:26;;;;;;;3.05;1.85;;;;;;;;;;4870942;29;20402;-87
2021/10/18 14:52:52;;;;;;;3.53;1.85;;;;;;;;;;4875320;29;20056;-86
2021/10/18 14:55:18;;;;;;;8.07;3.13;;;;;;;;;;4873060;29;20064;-86
2021/10/18 14:57:44;;;;;;;4.25;2.58;;;;;;;;;;4874702;29;20037;-87
2021/10/18 15:00:10;;;;;;;4.97;2.42;;;;;;;;;;4874031;29;20503;-87
2021/10/18 15:02:38;;;;;;;3.80;2.35;;;19.00;58.10;;;;;;4876482;29;20419;-86
2021/10/18 15:05:04;;;;;;;8.57;2.80;;;;;;;;;;4870099;29;20125;-86
2021/10/18 15:07:30;;;;;;;5.35;2.58;;;;;;;;;;4876803;29;20040;-85
2021/10/18 15:09:56;;;;;;;6.25;2.95;;;;;;;;;;4872418;29;20422;-88
2021/10/18 15:12:22;;;;;;;8.73;2.80;;;;;;;;;;4878833;29;20033;-87
2021/10/18 15:14:48;;;;;;;11.38;3.60;;;;;;;;;;4874444;29;20028;-86
2021/10/18 15:17:14;;;;;;;29.70;3.47;;;;;;;;;;4872840;29;20245;-87
2021/10/18 15:19:40;;;;;;;7.43;3.63;;;;;;;;;;4869489;29;20383;-86
2021/10/18 15:22:07;;;;;;;7.13;3.47;;;;;;;;;;4893898;29;20060;-87
2021/10/18 15:24:33;;;;;;;10.05;4.18;;;;;;;;;;4888303;29;20032;-86
2021/10/18 15:27:00;;;;;;;7.95;5.18;;;;;;;;;;4889519;29;20049;-86
2021/10/18 15:29:26;;;;;;;8.00;3.72;;;;;;;;;;4891777;29;20035;-85